Вытегра

СКИДКИ НА СМАРТФОНЫ!

Карта отелей и гостиниц, располагающихся рядом с аэропортом Вытегра :

Вытегра Вологодская область 61° 1' 54.9804" N, 36° 26' 16.6884" E
Вытегра Вологодская область 61° 1' 54.9804" N, 36° 26' 16.6884" E
Код аэродрома ИКАО
ULWR
Код аэродрома RU
УЛВР
Координаты
N61.03194° E036.43797°
Превышение над уровнем моря
67
Основная полоса
10/28
Курс магнитный
097,1/277,1
Длина основной ВПП
1349
Ширина основной ВПП
34
Покрытие основной ВПП
Твёрдое (асфальтобетон)
Освещение ВПП
Нет
Тип: 
Аэродром
Класс аэродрома: 
Принадлежность: 
АОН
Статус: 
Действующий
Сайт: 
E-mail аэродрома: 
avtg@arcsar.ru
Страна: 
Россия
Регион: 
Вологодская область
Город: 
Дополнительная информация: 
Владелец ПП: ФГКУ "АСУНЦ "Вытегра". Параллельная ГВПП (650x45м) не поддерживается. Ранее была ДПРС: 580-УЛ/ЦЗ. АД был построен еще до начала ВОВ и принимал участие в боевых действиях. Ныне в статусе посадочной площадки, АНППП которой зарегистрирован в СЗМТУ Росавиации 10.07.2017г. за №СЗП3-518.

Скидки на навигаторы!

Найти трансфер

С помощью этой формы Вы можете найти трансфер из аэропорта Вытегра в город, аэропорт или вокзал:

Погода в аэропортах:

Авиационная погода в Нижневартовске

Регион: 
Погода METAR: 
USNN 091230Z 28002MPS 3600 HZ FEW032CB 26/21 Q1014 R21/0///65 TEMPO VRB18MPS 2000 TSRAGR RMK QFE756
Время наблюдения
2022-08-09T12:30:00Z
Температура C
26.0
Точка росы
21.0
Направление ветра
280
Скорость ветра (узлы)
4
Метео видимость
2.24
Облачность
FEW
Нижняя граница облачности (футы)
3200
Явления погоды
HZ
Условия полета
IFR
Аэропорт подробнее: 
FEW – незначительная облачность;
HZ – мгла (видимость менее 10 км);

Авиационная погода в Тулча

Регион: 
Погода METAR: 
LRTC 091230Z 36015KT 9999 VCTS FEW050CB 32/12 Q1014
Время наблюдения
2022-08-09T12:30:00Z
Температура C
32.0
Точка росы
12.0
Направление ветра
360
Скорость ветра (узлы)
15
Метео видимость
6.21
Облачность
FEW
Нижняя граница облачности (футы)
5000
Явления погоды
VCTS
Условия полета
VFR
FEW – незначительная облачность;

Авиационная погода в Нижнем Новгороде

Регион: 
Погода METAR: 
UWGG 091230Z 35003MPS 9999 -SHRA SCT040CB 22/21 Q1020 R36R/190060 TEMPO -TSRA
Время наблюдения
2022-08-09T12:30:00Z
Температура C
22.0
Точка росы
21.0
Направление ветра
350
Скорость ветра (узлы)
6
Метео видимость
6.21
Облачность
SCT
Нижняя граница облачности (футы)
4000
Явления погоды
-SHRA
Условия полета
VFR
Аэропорт подробнее: 
SCT – разбросанная отдельная облачность;
-SHRA - слабый ливневой дождь;

Авиационная погода в Вадсё

Регион: 
Погода METAR: 
ENVD 091220Z 27012KT 9999 -SHRA SCT047 BKN057 15/09 Q1016
Время наблюдения
2022-08-09T12:20:00Z
Температура C
15.0
Точка росы
9.0
Направление ветра
270
Скорость ветра (узлы)
12
Метео видимость
6.21
Облачность
SCT
BKN
Нижняя граница облачности (футы)
4700
5700
Явления погоды
-SHRA
Условия полета
VFR
SCT – разбросанная отдельная облачность; BKN – значительная (рассеянная, разорванная) облачность;
-SHRA - слабый ливневой дождь;